Time;durP1;ratioP1;P1;durP2;ratioP2;P2;SDS_P1;SDS_P2;PMS_P1;PMS_P2;Temp;Humidity;BMP_temperature;BMP_pressure;BME280_temperature;BME280_humidity;BME280_pressure;Samples;Min_cycle;Max_cycle;Signal;HPM_P1;HPM_P2
2022/06/09 00:01:08;;;;;;;36.08;8.75;;;;;;;;;;5030814;28;20079;-69
2022/06/09 00:03:39;;;;;;;34.97;8.50;;;;;;;;;;5035569;28;20029;-68
2022/06/09 00:06:06;;;;;;;39.50;9.82;;;;;;;;;;5029471;28;20035;-68
2022/06/09 00:08:33;;;;;;;47.22;9.10;;;;;;;;;;5037300;28;20029;-68
2022/06/09 00:11:01;;;;;;;41.83;10.32;;;;;;;;;;5027826;28;20033;-69
2022/06/09 00:13:27;;;;;;;48.58;10.50;;;;;;;;;;5035239;28;20628;-68
2022/06/09 00:15:54;;;;;;;39.90;10.48;;;;;;;;;;5029227;28;20029;-70
2022/06/09 00:18:21;;;;;;;44.15;11.55;;;;;;;;;;5033806;28;20033;-69
2022/06/09 00:20:47;;;;;;;39.58;11.52;;;;;;;;;;5035090;28;20063;-69
2022/06/09 00:23:16;;;;;;;41.35;11.60;;;;;;;;;;5037170;28;20032;-69
2022/06/09 00:25:42;;;;;;;60.17;13.23;;;;;;;;;;5029728;28;20025;-69
2022/06/09 00:28:08;;;;;;;46.13;12.68;;;;;;;;;;5033003;28;20752;-70
2022/06/09 00:30:34;;;;;;;57.15;13.73;;;;;;;;;;5031820;28;20478;-69
2022/06/09 00:33:00;;;;;;;56.88;13.35;;;;;;;;;;5030862;28;20021;-69
2022/06/09 00:35:26;;;;;;;60.92;15.63;;;;;;;;;;5029629;28;20041;-69
2022/06/09 00:37:52;;;;;;;49.00;13.27;;;;;;;;;;5028626;28;20037;-69
2022/06/09 00:40:18;;;;;;;51.25;13.75;;;;;;;;;;5029027;28;20041;-68
2022/06/09 00:42:45;;;;;;;48.15;13.77;;;;;;;;;;5034112;28;20029;-69
2022/06/09 00:45:29;;;;;;;59.13;15.23;;;;;;;;;;5028849;28;20053;-69
2022/06/09 00:48:04;;;;;;;64.30;15.07;;;;;;;;;;5034976;28;20057;-69
2022/06/09 00:50:31;;;;;;;57.83;13.93;;;;;;;;;;5026124;28;20029;-70
2022/06/09 00:53:01;;;;;;;63.05;15.52;;;;;;;;;;5030574;28;20057;-70
2022/06/09 00:55:28;;;;;;;57.88;15.40;;;;;;;;;;5029572;28;20033;-69
2022/06/09 00:58:02;;;;;;;48.35;15.35;;;;;;;;;;5033813;28;20478;-70
2022/06/09 01:00:30;;;;;;;57.08;14.27;;;;;;;;;;5030327;28;20032;-69
2022/06/09 01:02:57;;;;;;;49.83;15.50;;;;;;;;;;5036122;28;20116;-69
2022/06/09 01:05:24;;;;;;;57.35;14.80;;;;;;;;;;5029609;28;20057;-70
2022/06/09 01:07:52;;;;;;;47.35;14.35;;;;;;;;;;5032329;28;20110;-69
2022/06/09 01:10:18;;;;;;;57.50;14.27;;;;;;;;;;5025227;28;20490;-69
2022/06/09 01:12:46;;;;;;;51.70;14.50;;;;;;;;;;5030988;28;20067;-70
2022/06/09 01:15:14;;;;;;;51.28;14.80;;;;;;;;;;5028012;28;20121;-69
2022/06/09 01:18:07;;;;;;;54.50;14.85;;;;;;;;;;5033711;28;20736;-69
2022/06/09 01:20:46;;;;;;;45.20;14.38;;;;;;;;;;5030932;28;20025;-69
2022/06/09 01:23:28;;;;;;;39.63;12.45;;;;;;;;;;5033546;28;20475;-69
2022/06/09 01:25:59;;;;;;;41.70;13.43;;;;;;;;;;5024620;28;20025;-69
2022/06/09 01:28:46;;;;;;;44.40;13.80;;;;;;;;;;5027414;28;20859;-69
2022/06/09 01:31:12;;;;;;;44.90;14.90;;;;;;;;;;5030526;28;20025;-69
2022/06/09 01:33:41;;;;;;;38.10;13.68;;;;;;;;;;5035332;28;20064;-69
2022/06/09 01:36:13;;;;;;;42.35;13.07;;;;;;;;;;5026345;28;20031;-69
2022/06/09 01:38:47;;;;;;;47.00;14.95;;;;;;;;;;5031146;28;20079;-69
2022/06/09 01:41:14;;;;;;;37.40;13.90;;;;;;;;;;5029433;28;20061;-69
2022/06/09 01:43:40;;;;;;;45.92;15.90;;;;;;;;;;5038503;28;20026;-69
2022/06/09 01:46:09;;;;;;;60.95;13.82;;;;;;;;;;5031189;28;20104;-70
2022/06/09 01:48:36;;;;;;;56.70;14.05;;;;;;;;;;5036550;28;20592;-69
2022/06/09 01:51:09;;;;;;;49.47;14.98;;;;;;;;;;5025835;28;20041;-69
2022/06/09 01:53:41;;;;;;;48.20;13.07;;;;;;;;;;5034670;28;20056;-69
2022/06/09 01:56:10;;;;;;;42.05;13.18;;;;;;;;;;5029474;28;20069;-69
2022/06/09 01:58:48;;;;;;;41.60;13.13;;;;;;;;;;5033310;28;20029;-69
2022/06/09 02:01:16;;;;;;;40.55;13.52;;;;;;;;;;5028235;28;20032;-69
2022/06/09 02:03:44;;;;;;;44.10;13.63;;;;;;;;;;5030063;28;20022;-68
2022/06/09 02:06:11;;;;;;;42.88;13.65;;;;;;;;;;5027538;28;20360;-69
2022/06/09 02:08:38;;;;;;;31.48;13.65;;;;;;;;;;5035709;28;20029;-69
2022/06/09 02:11:11;;;;;;;42.60;12.60;;;;;;;;;;5033737;28;20060;-69
2022/06/09 02:13:42;;;;;;;40.38;13.70;;;;;;;;;;5038136;28;20029;-69
2022/06/09 02:16:10;;;;;;;39.40;14.63;;;;;;;;;;5024032;28;20033;-69
2022/06/09 02:18:37;;;;;;;38.67;14.82;;;;;;;;;;5034025;28;20025;-70
2022/06/09 02:21:07;;;;;;;50.65;15.38;;;;;;;;;;5025662;28;20029;-69
2022/06/09 02:23:33;;;;;;;38.72;15.55;;;;;;;;;;5027371;28;20025;-69
2022/06/09 02:25:59;;;;;;;48.47;16.50;;;;;;;;;;5031426;28;20371;-69
2022/06/09 02:28:25;;;;;;;35.80;15.80;;;;;;;;;;5036768;28;20064;-69
2022/06/09 02:30:51;;;;;;;47.63;16.73;;;;;;;;;;5034797;28;20025;-70
2022/06/09 02:33:18;;;;;;;46.00;15.40;;;;;;;;;;5037000;28;20041;-69
2022/06/09 02:35:45;;;;;;;38.75;14.98;;;;;;;;;;5023024;28;20029;-69
2022/06/09 02:38:11;;;;;;;43.88;16.15;;;;;;;;;;5036280;28;20036;-69
2022/06/09 02:40:37;;;;;;;47.63;14.43;;;;;;;;;;5026480;28;20064;-68
2022/06/09 02:43:03;;;;;;;44.38;14.88;;;;;;;;;;5037336;28;20029;-68
2022/06/09 02:45:29;;;;;;;41.75;13.70;;;;;;;;;;5032294;28;20029;-68
2022/06/09 02:47:56;;;;;;;45.72;13.52;;;;;;;;;;5039718;28;20046;-68
2022/06/09 02:50:22;;;;;;;46.20;14.00;;;;;;;;;;5026176;28;20037;-70
2022/06/09 02:52:48;;;;;;;40.20;13.07;;;;;;;;;;5040724;28;20035;-69
2022/06/09 02:55:14;;;;;;;42.75;12.93;;;;;;;;;;5030896;28;20049;-70
2022/06/09 02:57:40;;;;;;;38.35;12.13;;;;;;;;;;5039346;28;20397;-70
2022/06/09 03:00:08;;;;;;;30.35;11.35;;;;;;;;;;5030658;28;20042;-70
2022/06/09 03:02:34;;;;;;;34.03;11.93;;;;;;;;;;5035129;28;20096;-70
2022/06/09 03:05:00;;;;;;;38.00;11.65;;;;;;;;;;5025967;28;20038;-70
2022/06/09 03:07:26;;;;;;;34.15;9.95;;;;;;;;;;5036047;28;20084;-70
2022/06/09 03:09:53;;;;;;;38.65;11.18;;;;;;;;;;5036239;28;20406;-69
2022/06/09 03:12:20;;;;;;;32.83;9.98;;;;;;;;;;5040238;28;20504;-69
2022/06/09 03:14:46;;;;;;;37.60;10.77;;;;;;;;;;5030791;28;20045;-70
2022/06/09 03:17:12;;;;;;;35.85;10.23;;;;;;;;;;5031701;28;20514;-69
2022/06/09 03:19:38;;;;;;;34.20;9.93;;;;;;;;;;5031265;28;20037;-69
2022/06/09 03:22:04;;;;;;;32.72;10.90;;;;;;;;;;5031136;28;20028;-69
2022/06/09 03:24:30;;;;;;;30.25;9.90;;;;;;;;;;5036120;28;20455;-69
2022/06/09 03:26:57;;;;;;;26.15;9.15;;;;;;;;;;5036031;28;21461;-69
2022/06/09 03:29:23;;;;;;;33.42;9.95;;;;;;;;;;5037761;28;20542;-69
2022/06/09 03:31:49;;;;;;;30.85;9.15;;;;;;;;;;5030002;28;20029;-71
2022/06/09 03:34:15;;;;;;;35.95;8.63;;;;;;;;;;5024427;28;20475;-69
2022/06/09 03:36:45;;;;;;;36.22;9.35;;;;;;;;;;5032363;28;20040;-69
2022/06/09 03:39:12;;;;;;;30.08;8.45;;;;;;;;;;5041754;28;20068;-68
2022/06/09 03:41:38;;;;;;;26.10;8.27;;;;;;;;;;5035376;28;20025;-69
2022/06/09 03:44:05;;;;;;;30.90;9.23;;;;;;;;;;5032477;28;20029;-68
2022/06/09 03:46:31;;;;;;;27.17;7.35;;;;;;;;;;5047686;28;20114;-69
2022/06/09 03:48:57;;;;;;;34.78;8.10;;;;;;;;;;5036657;28;20033;-69
2022/06/09 03:51:23;;;;;;;24.98;7.68;;;;;;;;;;5032470;28;20587;-68
2022/06/09 03:53:49;;;;;;;21.10;8.25;;;;;;;;;;5040839;28;20034;-69
2022/06/09 03:56:16;;;;;;;21.25;7.40;;;;;;;;;;5034853;28;20321;-69
2022/06/09 03:58:43;;;;;;;34.13;7.90;;;;;;;;;;5032955;28;20083;-70
2022/06/09 04:01:13;;;;;;;23.50;7.45;;;;;;;;;;5032274;28;20029;-68
2022/06/09 04:03:40;;;;;;;32.60;8.77;;;;;;;;;;5033808;28;20024;-69
2022/06/09 04:06:06;;;;;;;30.27;7.72;;;;;;;;;;5035644;28;20276;-68
2022/06/09 04:08:33;;;;;;;21.65;8.25;;;;;;;;;;5037813;28;20074;-68
2022/06/09 04:10:59;;;;;;;34.40;8.93;;;;;;;;;;5037333;28;20037;-69
2022/06/09 04:13:25;;;;;;;31.45;10.13;;;;;;;;;;5040081;28;20035;-69
2022/06/09 04:15:51;;;;;;;25.00;7.95;;;;;;;;;;5015536;28;20037;-69
2022/06/09 04:18:17;;;;;;;23.88;9.13;;;;;;;;;;5034521;28;20367;-69
2022/06/09 04:20:43;;;;;;;25.13;7.90;;;;;;;;;;5027103;28;20061;-69
2022/06/09 04:23:09;;;;;;;35.17;9.20;;;;;;;;;;5032331;28;20034;-69
2022/06/09 04:25:35;;;;;;;24.00;7.90;;;;;;;;;;5032059;28;20025;-67
2022/06/09 04:28:02;;;;;;;20.27;6.43;;;;;;;;;;5039712;28;20175;-69
2022/06/09 04:30:28;;;;;;;20.33;5.90;;;;;;;;;;5029016;28;20136;-69
2022/06/09 04:32:56;;;;;;;17.35;4.88;;;;;;;;;;5029919;28;20029;-70
2022/06/09 04:35:22;;;;;;;19.75;4.00;;;;;;;;;;5027332;28;20018;-69
2022/06/09 04:38:00;;;;;;;14.75;4.05;;;;;;;;;;5039575;28;20029;-69
2022/06/09 04:40:27;;;;;;;12.90;3.50;;;;;;;;;;5031210;28;20033;-68
2022/06/09 04:42:53;;;;;;;14.20;3.97;;;;;;;;;;5036475;28;20041;-68
2022/06/09 04:45:19;;;;;;;11.43;2.80;;;;;;;;;;5033121;28;21329;-69
2022/06/09 04:47:45;;;;;;;14.65;2.88;;;;;;;;;;5032735;28;20491;-69
2022/06/09 04:50:12;;;;;;;14.10;2.72;;;;;;;;;;5032918;28;20084;-69
2022/06/09 04:52:39;;;;;;;11.77;2.75;;;;;;;;;;5034302;28;20028;-68
2022/06/09 04:55:06;;;;;;;14.50;2.28;;;;;;;;;;5032542;28;20621;-68
2022/06/09 04:57:32;;;;;;;17.30;2.38;;;;;;;;;;5039257;28;20243;-68
2022/06/09 04:59:58;;;;;;;12.43;3.17;;;;;;;;;;5045134;28;20055;-68
2022/06/09 05:02:24;;;;;;;7.35;1.83;;;;;;;;;;5028203;28;20021;-69
2022/06/09 05:04:50;;;;;;;9.05;2.05;;;;;;;;;;5026052;28;20620;-69
2022/06/09 05:07:16;;;;;;;8.50;2.80;;;;;;;;;;5025194;28;20025;-69
2022/06/09 05:09:42;;;;;;;11.52;2.60;;;;;;;;;;5036404;28;20475;-69
2022/06/09 05:12:08;;;;;;;10.18;2.30;;;;;;;;;;5026248;28;20053;-69
2022/06/09 05:14:34;;;;;;;10.85;2.05;;;;;;;;;;5034323;28;20037;-69
2022/06/09 05:17:00;;;;;;;10.32;2.30;;;;;;;;;;5027895;28;20581;-69
2022/06/09 05:19:26;;;;;;;12.55;2.22;;;;;;;;;;5027048;28;20100;-69
2022/06/09 05:21:52;;;;;;;11.15;1.98;;;;;;;;;;5026088;28;20025;-68
2022/06/09 05:24:18;;;;;;;13.30;2.17;;;;;;;;;;5035668;28;20025;-70
2022/06/09 05:26:44;;;;;;;5.75;1.77;;;;;;;;;;5028373;28;20181;-67
2022/06/09 05:29:10;;;;;;;6.03;2.50;;;;;;;;;;5023536;28;20034;-68
2022/06/09 05:31:36;;;;;;;6.65;1.77;;;;;;;;;;5024439;28;20069;-69
2022/06/09 05:34:03;;;;;;;6.43;2.22;;;;;;;;;;5028769;28;20025;-69
2022/06/09 05:36:29;;;;;;;9.15;1.63;;;;;;;;;;5031998;28;20036;-69
2022/06/09 05:47:09;;;;;;;10.73;2.53;;;;;;;;;;5030987;28;20055;-68
2022/06/09 05:49:35;;;;;;;10.30;1.67;;;;;;;;;;5034434;28;20080;-69
2022/06/09 05:52:01;;;;;;;10.02;2.35;;;;;;;;;;5017413;28;20041;-69
2022/06/09 05:54:27;;;;;;;9.98;1.88;;;;;;;;;;5024813;28;20124;-69
2022/06/09 05:56:54;;;;;;;5.63;1.60;;;;;;;;;;5026993;28;20519;-69
2022/06/09 05:59:20;;;;;;;7.45;1.60;;;;;;;;;;5026424;28;20037;-69
2022/06/09 06:01:46;;;;;;;7.05;1.80;;;;;;;;;;5025659;28;20551;-69
2022/06/09 06:04:12;;;;;;;6.80;1.60;;;;;;;;;;5022108;28;20727;-69
2022/06/09 06:06:39;;;;;;;8.15;1.85;;;;;;;;;;5028976;28;20033;-69
2022/06/09 06:09:09;;;;;;;9.02;2.20;;;;;;;;;;5028084;28;20021;-68
2022/06/09 06:11:36;;;;;;;8.02;1.92;;;;;;;;;;5032649;28;20325;-67
2022/06/09 06:14:02;;;;;;;10.20;1.90;;;;;;;;;;5035939;28;20511;-67
2022/06/09 06:16:28;;;;;;;10.05;1.95;;;;;;;;;;5028191;28;20523;-67
2022/06/09 06:18:54;;;;;;;10.02;2.10;;;;;;;;;;5028922;28;20026;-69
2022/06/09 06:21:21;;;;;;;15.32;2.42;;;;;;;;;;5028366;28;20038;-68
2022/06/09 06:23:47;;;;;;;12.75;2.22;;;;;;;;;;5029320;28;20741;-67
2022/06/09 06:26:14;;;;;;;13.95;2.88;;;;;;;;;;5011766;28;20033;-68
2022/06/09 06:28:40;;;;;;;14.10;2.88;;;;;;;;;;5009518;28;20022;-67
2022/06/09 06:31:06;;;;;;;6.63;2.35;;;;;;;;;;5009611;28;20057;-68
2022/06/09 06:33:32;;;;;;;15.18;2.50;;;;;;;;;;5024960;28;20033;-67
2022/06/09 06:35:58;;;;;;;7.30;2.50;;;;;;;;;;5016936;28;20486;-68
2022/06/09 06:38:24;;;;;;;14.88;3.20;;;;;;;;;;5027169;28;20184;-68
2022/06/09 06:40:50;;;;;;;16.27;3.85;;;;;;;;;;5028410;28;20079;-68
2022/06/09 06:43:17;;;;;;;12.88;2.90;;;;;;;;;;5028733;28;20022;-68
2022/06/09 06:45:43;;;;;;;13.00;3.03;;;;;;;;;;5027426;28;20025;-69
2022/06/09 06:48:10;;;;;;;10.02;2.72;;;;;;;;;;5027329;28;20049;-70
2022/06/09 06:50:36;;;;;;;9.77;3.13;;;;;;;;;;5027183;28;20133;-67
2022/06/09 06:53:02;;;;;;;12.63;3.58;;;;;;;;;;5027409;28;20447;-69
2022/06/09 06:55:29;;;;;;;12.48;3.22;;;;;;;;;;5029205;28;20477;-67
2022/06/09 06:57:55;;;;;;;14.15;2.90;;;;;;;;;;5028759;28;20038;-68
2022/06/09 07:00:22;;;;;;;8.38;2.70;;;;;;;;;;5028108;28;20029;-68
2022/06/09 07:02:49;;;;;;;10.57;3.45;;;;;;;;;;5028171;28;20107;-69
2022/06/09 07:05:15;;;;;;;10.32;2.80;;;;;;;;;;5021856;28;20553;-68
2022/06/09 07:07:41;;;;;;;9.68;2.40;;;;;;;;;;5009520;28;20050;-68
2022/06/09 07:10:08;;;;;;;8.98;2.63;;;;;;;;;;5025234;28;20482;-69
2022/06/09 07:12:34;;;;;;;8.63;2.60;;;;;;;;;;5027640;28;20553;-67
2022/06/09 07:15:00;;;;;;;9.70;2.58;;;;;;;;;;5022073;28;20113;-68
2022/06/09 07:17:27;;;;;;;9.98;2.17;;;;;;;;;;5008933;28;20040;-68
2022/06/09 07:19:53;;;;;;;10.27;2.47;;;;;;;;;;5008617;28;20125;-68
2022/06/09 07:22:19;;;;;;;10.90;2.70;;;;;;;;;;5008475;28;20550;-68
2022/06/09 07:24:45;;;;;;;7.45;2.17;;;;;;;;;;5023465;28;20040;-68
2022/06/09 07:27:12;;;;;;;7.30;1.83;;;;;;;;;;5030470;28;20125;-67
2022/06/09 07:29:38;;;;;;;9.82;1.88;;;;;;;;;;5032081;28;20036;-68
2022/06/09 07:32:05;;;;;;;6.20;1.55;;;;;;;;;;5025509;28;20036;-68
2022/06/09 07:34:31;;;;;;;9.90;1.70;;;;;;;;;;5012107;28;20499;-69
2022/06/09 07:36:57;;;;;;;13.02;1.85;;;;;;;;;;5012735;28;20033;-69
2022/06/09 07:39:24;;;;;;;11.25;2.50;;;;;;;;;;5042353;28;20121;-68
2022/06/09 07:41:50;;;;;;;7.97;2.10;;;;;;;;;;5031528;28;20025;-69
2022/06/09 07:44:16;;;;;;;7.65;2.13;;;;;;;;;;5013627;28;20034;-68
2022/06/09 07:46:42;;;;;;;8.95;2.83;;;;;;;;;;5012168;28;20479;-67
2022/06/09 07:49:09;;;;;;;9.77;2.72;;;;;;;;;;5012149;28;20499;-68
2022/06/09 07:51:35;;;;;;;8.82;2.67;;;;;;;;;;5021881;28;20029;-68
2022/06/09 07:54:01;;;;;;;8.75;2.80;;;;;;;;;;5026308;28;20025;-67
2022/06/09 07:56:28;;;;;;;8.25;2.35;;;;;;;;;;5030837;28;20347;-67
2022/06/09 07:58:54;;;;;;;13.30;2.35;;;;;;;;;;5031130;28;20037;-68
2022/06/09 08:01:22;;;;;;;8.88;1.70;;;;;;;;;;5031317;28;20063;-68
2022/06/09 08:03:48;;;;;;;10.38;2.00;;;;;;;;;;5030625;28;20049;-68
2022/06/09 08:06:15;;;;;;;6.18;2.00;;;;;;;;;;5029967;28;20117;-68
2022/06/09 08:08:41;;;;;;;7.05;1.98;;;;;;;;;;5046704;28;20498;-67
2022/06/09 08:11:09;;;;;;;10.77;2.25;;;;;;;;;;5029454;28;20136;-67
2022/06/09 08:13:36;;;;;;;9.35;2.17;;;;;;;;;;5030887;28;20071;-68
2022/06/09 08:16:02;;;;;;;7.00;1.92;;;;;;;;;;5046463;28;20029;-67
2022/06/09 08:18:28;;;;;;;9.88;1.83;;;;;;;;;;5029500;28;20045;-67
2022/06/09 08:20:55;;;;;;;8.90;1.92;;;;;;;;;;5030881;28;20108;-68
2022/06/09 08:23:23;;;;;;;9.38;1.88;;;;;;;;;;5031202;28;20043;-67
2022/06/09 08:25:50;;;;;;;6.85;1.73;;;;;;;;;;5031261;28;20120;-68
2022/06/09 08:28:18;;;;;;;10.40;1.83;;;;;;;;;;5030982;28;20044;-68
2022/06/09 08:30:44;;;;;;;7.07;1.58;;;;;;;;;;5031019;28;20060;-68
2022/06/09 08:33:10;;;;;;;13.27;1.98;;;;;;;;;;5028847;28;20055;-67
2022/06/09 08:35:37;;;;;;;8.80;1.92;;;;;;;;;;5029253;28;20038;-67
2022/06/09 08:38:04;;;;;;;7.65;2.00;;;;;;;;;;5030252;28;20060;-67
2022/06/09 08:40:50;;;;;;;11.25;1.80;;;;;;;;;;5030863;28;20029;-67
2022/06/09 08:43:35;;;;;;;10.15;2.10;;;;;;;;;;5018866;28;20037;-68
2022/06/09 08:46:06;;;;;;;11.35;2.03;;;;;;;;;;5029548;28;20053;-68
2022/06/09 08:48:37;;;;;;;8.10;2.30;;;;;;;;;;5030704;28;20045;-67
2022/06/09 08:51:11;;;;;;;8.98;1.55;;;;;;;;;;5029934;28;20427;-67
2022/06/09 08:53:45;;;;;;;10.02;2.08;;;;;;;;;;5030688;28;20038;-67
2022/06/09 08:56:17;;;;;;;7.68;2.10;;;;;;;;;;5030881;28;20499;-68
2022/06/09 08:58:48;;;;;;;7.35;1.52;;;;;;;;;;5029739;28;20033;-68
2022/06/09 09:01:30;;;;;;;11.02;1.52;;;;;;;;;;5030067;28;20342;-68
2022/06/09 09:03:58;;;;;;;9.90;1.85;;;;;;;;;;5030043;28;20025;-67
2022/06/09 09:06:28;;;;;;;7.32;1.88;;;;;;;;;;5030019;28;20084;-67
2022/06/09 09:08:59;;;;;;;7.07;1.70;;;;;;;;;;5030769;28;20028;-67
2022/06/09 09:11:32;;;;;;;10.70;1.65;;;;;;;;;;5030656;28;20028;-68
2022/06/09 09:14:04;;;;;;;9.63;1.90;;;;;;;;;;5030059;28;20120;-67
2022/06/09 09:16:34;;;;;;;9.75;2.00;;;;;;;;;;5029412;28;20029;-68
2022/06/09 09:19:12;;;;;;;7.60;1.50;;;;;;;;;;5029115;28;20048;-67
2022/06/09 09:21:38;;;;;;;8.32;1.98;;;;;;;;;;5029852;28;20052;-68
2022/06/09 09:24:04;;;;;;;6.75;1.60;;;;;;;;;;5029576;28;20035;-68
2022/06/09 09:26:36;;;;;;;10.23;1.80;;;;;;;;;;5029876;28;20526;-69
2022/06/09 09:29:10;;;;;;;9.38;1.92;;;;;;;;;;5027871;28;20108;-67
2022/06/09 09:31:36;;;;;;;6.55;1.58;;;;;;;;;;5021209;28;20034;-67
2022/06/09 09:34:04;;;;;;;4.07;1.20;;;;;;;;;;5028094;28;20025;-67
2022/06/09 09:36:31;;;;;;;8.63;1.70;;;;;;;;;;5029792;28;20104;-67
2022/06/09 09:39:03;;;;;;;7.32;1.52;;;;;;;;;;5029740;28;20049;-68
2022/06/09 09:41:34;;;;;;;13.10;1.90;;;;;;;;;;5019565;28;20749;-66
2022/06/09 09:44:21;;;;;;;8.05;1.60;;;;;;;;;;5040473;28;20053;-68
2022/06/09 09:46:54;;;;;;;4.78;1.50;;;;;;;;;;5029121;28;20095;-65
2022/06/09 09:49:23;;;;;;;8.10;1.75;;;;;;;;;;5028176;28;20038;-66
2022/06/09 09:51:49;;;;;;;7.70;1.65;;;;;;;;;;5026613;28;20030;-68
2022/06/09 09:54:20;;;;;;;6.30;1.70;;;;;;;;;;5027615;28;20128;-67
2022/06/09 09:56:46;;;;;;;14.27;2.22;;;;;;;;;;5029753;28;20032;-66
2022/06/09 09:59:24;;;;;;;7.28;1.60;;;;;;;;;;5025471;28;20025;-67
2022/06/09 10:10:26;;;;;;;12.98;1.92;;;;;;;;;;5015146;28;20052;-68
2022/06/09 10:12:52;;;;;;;7.45;1.55;;;;;;;;;;5027908;28;20037;-67
2022/06/09 10:15:20;;;;;;;11.43;2.53;;;;;;;;;;5018828;28;20042;-66
2022/06/09 10:18:09;;;;;;;7.40;1.85;;;;;;;;;;5020510;28;20721;-67
2022/06/09 10:20:43;;;;;;;9.13;2.33;;;;;;;;;;5010117;28;20034;-68
2022/06/09 10:23:09;;;;;;;9.95;1.75;;;;;;;;;;5009332;28;20265;-68
2022/06/09 10:25:54;;;;;;;8.35;1.60;;;;;;;;;;5010140;28;20057;-67
2022/06/09 10:28:30;;;;;;;9.85;1.83;;;;;;;;;;5009797;28;20029;-68
2022/06/09 10:31:01;;;;;;;8.07;1.80;;;;;;;;;;5023006;28;20041;-67
2022/06/09 10:33:34;;;;;;;9.60;1.85;;;;;;;;;;5028633;28;20505;-67
2022/06/09 10:36:02;;;;;;;9.60;2.05;;;;;;;;;;5027938;28;20095;-67
2022/06/09 10:38:42;;;;;;;7.60;1.90;;;;;;;;;;5029244;28;20040;-67
2022/06/09 10:41:13;;;;;;;9.93;1.80;;;;;;;;;;5029072;28;20034;-67
2022/06/09 10:44:05;;;;;;;8.20;1.95;;;;;;;;;;5026926;28;20064;-68
2022/06/09 10:46:31;;;;;;;9.70;1.95;;;;;;;;;;5024593;28;20034;-69
2022/06/09 10:57:37;;;;;;;8.35;2.03;;;;;;;;;;5018565;28;20187;-66
2022/06/09 11:00:13;;;;;;;8.38;1.95;;;;;;;;;;5008641;28;20478;-67
2022/06/09 11:02:40;;;;;;;12.32;2.05;;;;;;;;;;5032055;28;20033;-66
2022/06/09 11:05:13;;;;;;;9.63;2.20;;;;;;;;;;5032912;28;20029;-68
2022/06/09 11:07:58;;;;;;;13.70;2.45;;;;;;;;;;5033006;28;20026;-67
2022/06/09 11:10:32;;;;;;;11.10;2.58;;;;;;;;;;5032766;28;20033;-67
2022/06/09 11:13:10;;;;;;;14.43;2.60;;;;;;;;;;5031075;28;20032;-69
2022/06/09 11:15:39;;;;;;;9.82;2.38;;;;;;;;;;5032170;28;20129;-68
2022/06/09 11:18:05;;;;;;;8.10;2.38;;;;;;;;;;5032025;28;20061;-67
2022/06/09 11:20:46;;;;;;;16.13;2.67;;;;;;;;;;5013132;28;20033;-67
2022/06/09 11:23:12;;;;;;;11.88;2.28;;;;;;;;;;5012584;28;20034;-68
2022/06/09 11:25:38;;;;;;;8.63;2.42;;;;;;;;;;5012623;28;20109;-66
2022/06/09 11:28:12;;;;;;;11.82;1.92;;;;;;;;;;5012904;28;20358;-68
2022/06/09 11:30:38;;;;;;;9.80;2.70;;;;;;;;;;5012700;28;20026;-67
2022/06/09 11:33:20;;;;;;;9.60;1.80;;;;;;;;;;5014839;28;20394;-65
2022/06/09 11:35:49;;;;;;;11.20;2.63;;;;;;;;;;5032465;28;20040;-67
2022/06/09 11:38:34;;;;;;;14.45;2.20;;;;;;;;;;5026089;28;20030;-67
2022/06/09 11:41:18;;;;;;;11.85;2.30;;;;;;;;;;5024687;28;20028;-68
2022/06/09 11:43:53;;;;;;;7.72;2.17;;;;;;;;;;5026519;28;20025;-67
2022/06/09 11:46:25;;;;;;;15.70;3.25;;;;;;;;;;5032359;28;20513;-68
2022/06/09 11:48:53;;;;;;;11.90;2.88;;;;;;;;;;5030334;28;20045;-68
2022/06/09 11:51:21;;;;;;;12.00;2.67;;;;;;;;;;5028044;28;20021;-67
2022/06/09 11:53:53;;;;;;;10.55;2.22;;;;;;;;;;5026793;28;20120;-67
2022/06/09 11:56:34;;;;;;;12.27;3.00;;;;;;;;;;5024420;28;20041;-68
2022/06/09 11:59:00;;;;;;;;;;;;;;;;;;5022638;28;20036;-66
2022/06/09 12:01:32;;;;;;;10.40;2.60;;;;;;;;;;5021178;28;20198;-67
2022/06/09 12:04:05;;;;;;;14.68;2.53;;;;;;;;;;5027344;28;20033;-67
2022/06/09 12:06:50;;;;;;;9.95;1.95;;;;;;;;;;5028816;28;20029;-66
2022/06/09 12:09:25;;;;;;;8.90;2.28;;;;;;;;;;5030371;28;20160;-68
2022/06/09 12:11:50;;;;;;;8.70;1.90;;;;;;;;;;5028342;28;20476;-67
2022/06/09 12:14:16;;;;;;;12.68;2.45;;;;;;;;;;5027766;28;20505;-67
2022/06/09 12:17:11;;;;;;;11.98;2.30;;;;;;;;;;5027429;28;20030;-67
2022/06/09 12:19:50;;;;;;;14.43;2.60;;;;;;;;;;5031019;28;20060;-68
2022/06/09 12:22:34;;;;;;;7.78;2.25;;;;;;;;;;5029383;28;20100;-68
2022/06/09 12:25:10;;;;;;;11.60;2.80;;;;;;;;;;5026664;28;20029;-66
2022/06/09 12:27:42;;;;;;;10.65;2.90;;;;;;;;;;5029559;28;20112;-67
2022/06/09 12:30:20;;;;;;;11.55;2.35;;;;;;;;;;5024441;28;20025;-67
2022/06/09 12:32:48;;;;;;;12.88;2.33;;;;;;;;;;5029201;28;20483;-66
2022/06/09 12:35:19;;;;;;;13.25;2.30;;;;;;;;;;5027792;28;20427;-67
2022/06/09 12:37:55;;;;;;;10.65;2.20;;;;;;;;;;5028830;28;20033;-67
2022/06/09 12:40:24;;;;;;;13.65;3.10;;;;;;;;;;5020288;28;20375;-67
2022/06/09 12:42:52;;;;;;;11.93;2.38;;;;;;;;;;5024455;28;20112;-67
2022/06/09 12:45:20;;;;;;;12.40;2.35;;;;;;;;;;5023846;28;20026;-68
2022/06/09 12:48:04;;;;;;;16.65;2.28;;;;;;;;;;5028604;28;20041;-68
2022/06/09 12:50:30;;;;;;;9.68;2.58;;;;;;;;;;5026462;28;20059;-68
2022/06/09 12:52:57;;;;;;;11.23;1.80;;;;;;;;;;5029737;28;20323;-67
2022/06/09 12:55:28;;;;;;;10.48;2.83;;;;;;;;;;5026580;28;20478;-67
2022/06/09 12:57:59;;;;;;;12.88;2.10;;;;;;;;;;5024067;28;20206;-66
2022/06/09 13:00:30;;;;;;;11.60;2.22;;;;;;;;;;5023021;28;20049;-66
2022/06/09 13:02:56;;;;;;;15.55;3.90;;;;;;;;;;5029863;28;20100;-68
2022/06/09 13:05:25;;;;;;;16.38;3.10;;;;;;;;;;5028407;28;20116;-66
2022/06/09 13:08:03;;;;;;;12.48;2.15;;;;;;;;;;5029092;28;20457;-67
2022/06/09 13:10:39;;;;;;;11.68;2.88;;;;;;;;;;5027326;28;20065;-67
2022/06/09 13:13:23;;;;;;;11.77;2.85;;;;;;;;;;5018118;28;20459;-66
2022/06/09 13:16:03;;;;;;;19.05;3.47;;;;;;;;;;5023306;28;20037;-66
2022/06/09 13:18:29;;;;;;;;;;;;;;;;;;5028859;28;20029;-67
2022/06/09 13:21:10;;;;;;;11.13;2.80;;;;;;;;;;5023678;28;20271;-67
2022/06/09 13:23:37;;;;;;;7.13;2.05;;;;;;;;;;5017308;28;20029;-67
2022/06/09 13:26:04;;;;;;;12.65;3.05;;;;;;;;;;5027662;28;20064;-66
2022/06/09 13:28:37;;;;;;;9.77;2.97;;;;;;;;;;5024061;28;20036;-67
2022/06/09 13:31:06;;;;;;;12.82;2.95;;;;;;;;;;5019842;28;20029;-67
2022/06/09 13:33:48;;;;;;;9.73;2.67;;;;;;;;;;5021627;28;20057;-68
2022/06/09 13:36:26;;;;;;;9.85;2.10;;;;;;;;;;5014953;28;20025;-67
2022/06/09 13:38:52;;;;;;;8.88;1.85;;;;;;;;;;5012450;28;20030;-66
2022/06/09 13:41:38;;;;;;;6.88;1.90;;;;;;;;;;5022208;28;20041;-67
2022/06/09 13:44:07;;;;;;;8.38;1.77;;;;;;;;;;5018609;28;20495;-67
2022/06/09 13:46:39;;;;;;;13.27;2.10;;;;;;;;;;5024907;28;20025;-67
2022/06/09 13:49:07;;;;;;;9.30;2.20;;;;;;;;;;5029557;28;20037;-66
2022/06/09 13:51:33;;;;;;;9.00;2.00;;;;;;;;;;5026102;28;20038;-67
2022/06/09 13:54:08;;;;;;;12.48;2.28;;;;;;;;;;5023515;28;20068;-67
2022/06/09 13:56:34;;;;;;;9.60;2.30;;;;;;;;;;5021937;28;20095;-67
2022/06/09 13:59:01;;;;;;;14.43;3.15;;;;;;;;;;5026158;28;20079;-67
2022/06/09 14:01:27;;;;;;;9.45;2.50;;;;;;;;;;5025883;28;20068;-67
2022/06/09 14:03:56;;;;;;;15.93;5.75;;;;;;;;;;5026380;28;20026;-66
2022/06/09 14:06:23;;;;;;;11.93;2.33;;;;;;;;;;5025206;28;20036;-66
2022/06/09 14:08:51;;;;;;;16.35;2.30;;;;;;;;;;5028819;28;20025;-68
2022/06/09 14:11:20;;;;;;;14.60;2.53;;;;;;;;;;5027110;28;20087;-68
2022/06/09 14:13:48;;;;;;;11.43;2.10;;;;;;;;;;5026387;28;20029;-69
2022/06/09 14:16:26;;;;;;;7.88;1.85;;;;;;;;;;5025533;28;20507;-67
2022/06/09 14:18:52;;;;;;;10.02;2.20;;;;;;;;;;5024685;28;20509;-67
2022/06/09 14:21:18;;;;;;;8.77;2.25;;;;;;;;;;5020736;28;20034;-67
2022/06/09 14:23:44;;;;;;;9.27;2.22;;;;;;;;;;5027159;28;20026;-67
2022/06/09 14:26:17;;;;;;;9.93;2.30;;;;;;;;;;5023061;28;20057;-68
2022/06/09 14:28:44;;;;;;;11.65;2.08;;;;;;;;;;5016853;28;20113;-67
2022/06/09 14:31:13;;;;;;;10.90;2.33;;;;;;;;;;5026021;28;20044;-67
2022/06/09 14:33:39;;;;;;;7.72;1.58;;;;;;;;;;5024842;28;20090;-66
2022/06/09 14:36:05;;;;;;;9.75;2.00;;;;;;;;;;5026882;28;20045;-67
2022/06/09 14:38:31;;;;;;;8.38;2.08;;;;;;;;;;5017306;28;20040;-67
2022/06/09 14:40:57;;;;;;;6.55;1.77;;;;;;;;;;5030340;28;20037;-67
2022/06/09 14:43:23;;;;;;;14.32;1.88;;;;;;;;;;5030632;28;20033;-67
2022/06/09 14:45:51;;;;;;;6.50;1.42;;;;;;;;;;5031961;28;20044;-66
2022/06/09 14:48:20;;;;;;;9.68;1.90;;;;;;;;;;5031418;28;20144;-67
2022/06/09 14:50:47;;;;;;;10.18;1.85;;;;;;;;;;5032280;28;20037;-66
2022/06/09 14:53:13;;;;;;;7.82;1.58;;;;;;;;;;5032357;28;20025;-66
2022/06/09 14:55:40;;;;;;;13.30;1.90;;;;;;;;;;5032263;28;20237;-68
2022/06/09 14:58:06;;;;;;;8.48;1.88;;;;;;;;;;5031072;28;20029;-66
2022/06/09 15:00:35;;;;;;;12.77;2.08;;;;;;;;;;5031122;28;20037;-67
2022/06/09 15:03:01;;;;;;;9.52;1.90;;;;;;;;;;5025187;28;20072;-67
2022/06/09 15:05:28;;;;;;;11.52;2.20;;;;;;;;;;5029318;28;20026;-68
2022/06/09 15:07:55;;;;;;;11.35;2.28;;;;;;;;;;5029541;28;20022;-68
2022/06/09 15:10:23;;;;;;;7.28;2.38;;;;;;;;;;5031830;28;20060;-66